YGQ weather

Geraldton Greenstone Regional Airport
Geraldton, Ontario, Canada

Public forecast

Using degrees Celsius for public forecast. Weather courtesy of forecast.io.

Current aviation weather report (METAR) for Geraldton Greenstone Regional Airport

Retrieved 2019/12/06 02:00 UTC (53 minutes ago):

CYGQ 060200Z 20005KT 1 1/2SM -SN VV015 M08/M09 A2987 RMK SN8 /S02/ SLP145

Aviation forecast (TAF) for Geraldton Greenstone Regional Airport

Retrieved 2019-12-06 02:42 UTC (11 minutes ago):

TAF CYGQ 060139Z 0602/0614 19005KT 2SM -SN OVC020 TEMPO 0602/0607 6SM -SN OVC025 FM060700 32010KT 4SM -SHSN OVC020 TEMPO 0607/0612 P6SM NSW OVC025 FM061200 32012KT P6SM SCT015 TEMPO 0612/0614 6SM -SN BKN015 RMK NXT FCST BY 060800Z